createdAt,value
2022-08-21T00:01:25.720Z,22.11
2022-08-21T00:06:28.671Z,22.02
2022-08-21T00:11:31.564Z,21.98
2022-08-21T00:16:34.412Z,21.89
2022-08-21T00:21:37.303Z,21.82
2022-08-21T00:26:40.195Z,21.72
2022-08-21T00:31:43.450Z,21.65
2022-08-21T00:36:46.359Z,21.59
2022-08-21T00:41:49.222Z,21.52
2022-08-21T00:46:52.457Z,21.42
2022-08-21T00:51:59.170Z,21.36
2022-08-21T00:57:08.224Z,21.32
2022-08-21T01:02:11.445Z,21.18
2022-08-21T01:07:14.323Z,21.06
2022-08-21T01:12:17.656Z,20.91
2022-08-21T01:17:20.450Z,20.85
2022-08-21T01:22:23.556Z,20.85
2022-08-21T01:27:26.523Z,20.88
2022-08-21T01:32:29.463Z,20.83
2022-08-21T01:37:32.401Z,20.73
2022-08-21T01:42:35.397Z,20.63
2022-08-21T01:47:38.294Z,20.50
2022-08-21T01:52:41.530Z,20.40
2022-08-21T01:57:45.132Z,20.32
2022-08-21T02:02:47.899Z,20.28
2022-08-21T02:07:52.812Z,20.22
2022-08-21T02:12:56.943Z,20.13
2022-08-21T02:18:01.626Z,20.06
2022-08-21T02:23:06.551Z,20.01
2022-08-21T02:28:12.178Z,19.95
2022-08-21T02:33:15.813Z,19.85
2022-08-21T02:38:27.220Z,19.82
2022-08-21T02:43:30.019Z,19.79
2022-08-21T02:48:33.446Z,19.74
2022-08-21T02:53:36.546Z,19.66
2022-08-21T02:58:46.253Z,19.56
2022-08-21T03:03:52.042Z,19.49
2022-08-21T03:08:55.371Z,19.39
2022-08-21T03:13:58.193Z,19.35
2022-08-21T03:19:00.909Z,19.32
2022-08-21T03:24:04.454Z,19.29
2022-08-21T03:29:08.549Z,19.26
2022-08-21T03:34:11.756Z,19.27
2022-08-21T03:39:14.945Z,19.28
2022-08-21T03:44:18.051Z,19.31
2022-08-21T03:49:20.818Z,19.39
2022-08-21T03:54:23.869Z,19.43
2022-08-21T03:59:26.740Z,19.50
2022-08-21T04:04:30.282Z,19.54
2022-08-21T04:09:33.158Z,19.63
2022-08-21T04:14:35.981Z,19.73
2022-08-21T04:19:38.864Z,19.73
2022-08-21T04:24:41.838Z,19.75
2022-08-21T04:29:44.664Z,19.81
2022-08-21T04:34:47.881Z,19.85
2022-08-21T04:39:53.575Z,19.89
2022-08-21T04:44:57.443Z,19.93
2022-08-21T04:50:00.658Z,19.98
2022-08-21T04:55:03.815Z,20.05
2022-08-21T05:00:12.367Z,20.12
2022-08-21T05:05:17.198Z,20.21
2022-08-21T05:10:20.626Z,20.25
2022-08-21T05:15:23.650Z,20.32
2022-08-21T05:20:26.442Z,20.40
2022-08-21T05:25:29.284Z,20.53
2022-08-21T05:30:33.896Z,20.60
2022-08-21T05:35:36.943Z,20.77
2022-08-21T05:40:39.758Z,20.98
2022-08-21T05:45:44.160Z,21.22
2022-08-21T05:50:48.500Z,21.36
2022-08-21T05:55:52.098Z,21.50
2022-08-21T06:00:55.744Z,21.64
2022-08-21T06:05:58.802Z,21.73
2022-08-21T06:11:02.215Z,21.79
2022-08-21T06:16:11.075Z,21.86
2022-08-21T06:21:14.707Z,21.92
2022-08-21T06:26:17.570Z,22.07
2022-08-21T06:31:23.254Z,22.22
2022-08-21T06:36:26.073Z,22.36
2022-08-21T06:41:29.015Z,22.50
2022-08-21T06:46:32.776Z,22.60
2022-08-21T06:51:35.665Z,22.68
2022-08-21T06:56:39.283Z,22.76
2022-08-21T07:01:42.463Z,22.83
2022-08-21T07:06:45.391Z,22.92
2022-08-21T07:11:51.277Z,22.97
2022-08-21T07:16:54.095Z,22.96
2022-08-21T07:22:00.103Z,23.08
2022-08-21T07:27:05.182Z,23.19
2022-08-21T07:32:11.110Z,23.27
2022-08-21T07:37:14.083Z,23.33
2022-08-21T07:42:20.516Z,23.38
2022-08-21T07:47:40.504Z,23.52
2022-08-21T07:52:45.752Z,23.66
2022-08-21T07:57:48.694Z,23.75
2022-08-21T08:02:52.770Z,23.88
2022-08-21T08:07:55.695Z,23.97
2022-08-21T08:12:58.802Z,24.09
2022-08-21T08:18:01.979Z,24.22
2022-08-21T08:23:04.957Z,24.33
2022-08-21T08:28:16.290Z,24.45
2022-08-21T08:33:22.587Z,24.60
2022-08-21T08:38:26.147Z,24.73
2022-08-21T08:43:30.881Z,24.86
2022-08-21T08:48:57.030Z,24.97
2022-08-21T08:54:03.838Z,25.04
2022-08-21T08:59:24.094Z,25.26
2022-08-21T09:04:29.741Z,25.53
2022-08-21T09:10:12.961Z,25.77
2022-08-21T09:15:34.830Z,26.01
2022-08-21T09:21:18.155Z,26.18
2022-08-21T09:26:25.294Z,26.07
2022-08-21T09:31:33.620Z,26.25
2022-08-21T09:36:49.498Z,26.33
2022-08-21T09:42:01.057Z,26.65
2022-08-21T09:47:03.913Z,26.93
2022-08-21T09:52:22.711Z,27.21
2022-08-21T09:57:50.511Z,27.85
2022-08-21T10:02:54.198Z,28.83
2022-08-21T10:07:57.114Z,29.12
2022-08-21T10:13:30.212Z,28.97
2022-08-21T10:18:43.463Z,28.90
2022-08-21T10:24:08.433Z,28.66
2022-08-21T10:29:48.713Z,28.44
2022-08-21T10:35:36.706Z,28.41
2022-08-21T10:41:35.991Z,28.67
2022-08-21T10:46:51.457Z,28.80
2022-08-21T10:51:57.653Z,28.99
2022-08-21T10:57:07.991Z,29.48
2022-08-21T11:02:24.760Z,29.57
2022-08-21T11:07:38.301Z,29.38
2022-08-21T11:12:56.211Z,29.22
2022-08-21T11:18:24.072Z,29.25
2022-08-21T11:23:35.246Z,29.69
2022-08-21T11:28:52.030Z,30.51
2022-08-21T11:34:07.877Z,30.93
2022-08-21T11:39:38.710Z,31.31
2022-08-21T11:45:00.093Z,31.18
2022-08-21T11:50:34.975Z,31.10
2022-08-21T11:55:48.283Z,32.58
2022-08-21T12:01:11.881Z,35.00
2022-08-21T12:06:24.168Z,36.92
2022-08-21T12:11:30.758Z,39.10
2022-08-21T12:16:35.657Z,40.66
2022-08-21T12:22:06.623Z,39.80
2022-08-21T12:27:46.891Z,37.44
2022-08-21T12:33:00.777Z,35.23
2022-08-21T12:38:13.512Z,33.87
2022-08-21T12:43:22.805Z,33.05
2022-08-21T12:48:42.441Z,32.63
2022-08-21T12:53:57.408Z,34.71
2022-08-21T12:59:06.336Z,37.10
2022-08-21T13:04:15.125Z,35.48
2022-08-21T13:09:21.000Z,34.07
2022-08-21T13:14:45.271Z,33.26
2022-08-21T13:20:24.452Z,32.67
2022-08-21T13:25:30.995Z,32.83
2022-08-21T13:30:34.159Z,34.73
2022-08-21T13:35:57.168Z,36.90
2022-08-21T13:41:16.971Z,38.81
2022-08-21T13:46:19.886Z,40.53
2022-08-21T13:51:23.281Z,41.53
2022-08-21T13:56:26.873Z,39.88
2022-08-21T14:01:34.671Z,37.68
2022-08-21T14:06:38.357Z,35.56
2022-08-21T14:11:41.299Z,34.72
2022-08-21T14:16:47.506Z,36.82
2022-08-21T14:21:50.541Z,38.72
2022-08-21T14:27:06.982Z,40.18
2022-08-21T14:32:25.152Z,41.32
2022-08-21T14:37:28.476Z,40.84
2022-08-21T14:42:31.506Z,40.38
2022-08-21T14:47:34.459Z,40.19
2022-08-21T14:52:37.930Z,39.06
2022-08-21T14:57:44.534Z,37.93
2022-08-21T15:02:47.424Z,36.77
2022-08-21T15:07:52.084Z,35.76
2022-08-21T15:12:54.967Z,34.72
2022-08-21T15:17:58.083Z,33.94
2022-08-21T15:23:01.125Z,33.37
2022-08-21T15:28:04.690Z,32.81
2022-08-21T15:33:07.571Z,31.99
2022-08-21T15:38:11.154Z,31.44
2022-08-21T15:43:35.736Z,30.90
2022-08-21T15:48:38.556Z,30.56
2022-08-21T15:53:41.324Z,30.10
2022-08-21T15:58:44.161Z,29.71
2022-08-21T16:03:49.892Z,29.36
2022-08-21T16:08:52.751Z,28.93
2022-08-21T16:13:56.966Z,28.48
2022-08-21T16:19:00.401Z,28.12
2022-08-21T16:24:03.803Z,27.78
2022-08-21T16:29:07.371Z,27.44
2022-08-21T16:34:10.193Z,27.13
2022-08-21T16:39:18.411Z,26.91
2022-08-21T16:44:21.740Z,26.69
2022-08-21T16:49:25.213Z,26.49
2022-08-21T16:54:29.006Z,26.31
2022-08-21T16:59:32.258Z,26.10
2022-08-21T17:04:35.299Z,25.91
2022-08-21T17:09:38.123Z,25.70
2022-08-21T17:14:41.014Z,25.45
2022-08-21T17:19:43.915Z,25.24
2022-08-21T17:24:46.724Z,24.98
2022-08-21T17:29:50.664Z,24.75
2022-08-21T17:34:53.461Z,24.54
2022-08-21T17:39:57.409Z,24.32
2022-08-21T17:45:00.734Z,24.12
2022-08-21T17:50:06.211Z,23.89
2022-08-21T17:55:09.341Z,23.69
2022-08-21T18:00:14.791Z,23.52
2022-08-21T18:05:17.882Z,23.34
2022-08-21T18:10:21.227Z,23.18
2022-08-21T18:15:24.031Z,23.08
2022-08-21T18:20:26.959Z,22.94
2022-08-21T18:25:30.090Z,22.81
2022-08-21T18:30:34.579Z,22.70
2022-08-21T18:35:37.928Z,22.65
2022-08-21T18:40:46.838Z,22.55
2022-08-21T18:45:49.691Z,22.39
2022-08-21T18:50:52.616Z,22.29
2022-08-21T18:55:57.795Z,22.24
2022-08-21T19:01:07.820Z,22.14
2022-08-21T19:06:11.922Z,22.00
2022-08-21T19:11:15.176Z,21.91
2022-08-21T19:16:26.292Z,21.85
2022-08-21T19:21:29.178Z,21.74
2022-08-21T19:26:34.160Z,21.62
2022-08-21T19:31:41.198Z,21.56
2022-08-21T19:36:44.411Z,21.49
2022-08-21T19:41:51.177Z,21.45
2022-08-21T19:46:55.011Z,21.38
2022-08-21T19:52:00.160Z,21.24
2022-08-21T19:57:06.845Z,21.17
2022-08-21T20:02:11.268Z,21.10
2022-08-21T20:07:14.182Z,21.03
2022-08-21T20:12:17.293Z,20.89
2022-08-21T20:17:21.011Z,20.79
2022-08-21T20:22:24.329Z,20.70
2022-08-21T20:27:28.631Z,20.64
2022-08-21T20:32:31.530Z,20.55
2022-08-21T20:37:37.308Z,20.55
2022-08-21T20:42:44.907Z,20.51
2022-08-21T20:47:48.248Z,20.45
2022-08-21T20:53:03.815Z,20.43
2022-08-21T20:58:29.551Z,20.44
2022-08-21T21:04:05.265Z,20.41
2022-08-21T21:09:19.902Z,20.31
2022-08-21T21:14:30.930Z,20.23
2022-08-21T21:19:47.627Z,20.14
2022-08-21T21:25:27.306Z,20.08
2022-08-21T21:30:46.949Z,20.05
2022-08-21T21:36:00.879Z,20.11
2022-08-21T21:41:21.383Z,20.10
2022-08-21T21:47:06.229Z,20.03
2022-08-21T21:52:40.937Z,19.98
2022-08-21T21:58:16.842Z,19.94
2022-08-21T22:03:26.028Z,19.85
2022-08-21T22:08:34.941Z,19.79
2022-08-21T22:14:06.171Z,19.76
2022-08-21T22:19:31.185Z,19.63
2022-08-21T22:24:40.402Z,19.52
2022-08-21T22:29:53.361Z,19.42
2022-08-21T22:35:25.054Z,19.32
2022-08-21T22:40:34.894Z,19.22
2022-08-21T22:46:05.738Z,19.19
2022-08-21T22:51:24.654Z,19.15
2022-08-21T22:56:38.663Z,19.10
2022-08-21T23:01:44.350Z,19.12
2022-08-21T23:06:58.264Z,19.08
2022-08-21T23:12:34.099Z,19.06
2022-08-21T23:18:21.371Z,19.06
2022-08-21T23:23:29.610Z,19.04
2022-08-21T23:29:06.097Z,19.04
2022-08-21T23:34:15.962Z,19.04
2022-08-21T23:40:15.552Z,18.98
2022-08-21T23:45:49.110Z,19.04
2022-08-21T23:51:11.013Z,19.10
2022-08-21T23:56:46.358Z,19.10
